sensor_id;sensor_type;location;lat;lon;timestamp;temperature;humidity
26655;DHT22;14278;50.784;4.630;2024-02-14T00:01:13;10.00;99.90
26655;DHT22;14278;50.784;4.630;2024-02-14T00:03:39;10.30;99.90
26655;DHT22;14278;50.784;4.630;2024-02-14T00:08:50;10.20;99.90
26655;DHT22;14278;50.784;4.630;2024-02-14T00:11:33;10.20;99.90
26655;DHT22;14278;50.784;4.630;2024-02-14T00:16:35;10.20;99.90
26655;DHT22;14278;50.784;4.630;2024-02-14T00:19:04;10.10;99.90
26655;DHT22;14278;50.784;4.630;2024-02-14T00:21:30;9.80;99.90
26655;DHT22;14278;50.784;4.630;2024-02-14T00:23:57;10.00;99.90
26655;DHT22;14278;50.784;4.630;2024-02-14T00:26:24;10.10;99.90
26655;DHT22;14278;50.784;4.630;2024-02-14T00:28:53;10.20;99.90
26655;DHT22;14278;50.784;4.630;2024-02-14T00:31:18;10.10;99.90
26655;DHT22;14278;50.784;4.630;2024-02-14T00:33:44;10.30;99.90
26655;DHT22;14278;50.784;4.630;2024-02-14T00:36:11;10.30;99.90
26655;DHT22;14278;50.784;4.630;2024-02-14T00:38:40;10.50;99.90
26655;DHT22;14278;50.784;4.630;2024-02-14T00:41:43;10.50;99.90
26655;DHT22;14278;50.784;4.630;2024-02-14T00:44:09;10.20;99.90
26655;DHT22;14278;50.784;4.630;2024-02-14T00:46:42;10.20;99.90
26655;DHT22;14278;50.784;4.630;2024-02-14T00:52:18;10.10;99.90
26655;DHT22;14278;50.784;4.630;2024-02-14T00:55:05;10.30;99.90
26655;DHT22;14278;50.784;4.630;2024-02-14T00:57:32;10.40;99.90
26655;DHT22;14278;50.784;4.630;2024-02-14T01:00:05;10.40;99.90
26655;DHT22;14278;50.784;4.630;2024-02-14T01:03:29;10.10;99.90
26655;DHT22;14278;50.784;4.630;2024-02-14T01:06:15;10.00;99.90
26655;DHT22;14278;50.784;4.630;2024-02-14T01:08:41;10.20;99.90
26655;DHT22;14278;50.784;4.630;2024-02-14T01:11:24;10.10;99.90
26655;DHT22;14278;50.784;4.630;2024-02-14T01:13:50;10.10;99.90
26655;DHT22;14278;50.784;4.630;2024-02-14T01:16:17;10.40;99.90
26655;DHT22;14278;50.784;4.630;2024-02-14T01:18:43;10.40;99.90
26655;DHT22;14278;50.784;4.630;2024-02-14T01:21:10;10.50;99.90
26655;DHT22;14278;50.784;4.630;2024-02-14T01:23:39;10.40;99.90
26655;DHT22;14278;50.784;4.630;2024-02-14T01:26:05;10.30;99.90
26655;DHT22;14278;50.784;4.630;2024-02-14T01:28:34;10.40;99.90
26655;DHT22;14278;50.784;4.630;2024-02-14T01:34:06;10.60;99.90
26655;DHT22;14278;50.784;4.630;2024-02-14T01:36:31;10.40;99.90
26655;DHT22;14278;50.784;4.630;2024-02-14T01:38:59;10.40;99.90
26655;DHT22;14278;50.784;4.630;2024-02-14T01:44:05;10.20;99.90
26655;DHT22;14278;50.784;4.630;2024-02-14T01:52:34;10.50;99.90
26655;DHT22;14278;50.784;4.630;2024-02-14T01:55:07;10.30;99.90
26655;DHT22;14278;50.784;4.630;2024-02-14T02:00:11;10.50;99.90
26655;DHT22;14278;50.784;4.630;2024-02-14T02:02:59;10.60;99.90
26655;DHT22;14278;50.784;4.630;2024-02-14T02:05:38;10.60;99.90
26655;DHT22;14278;50.784;4.630;2024-02-14T02:08:20;10.60;99.90
26655;DHT22;14278;50.784;4.630;2024-02-14T02:10:47;10.20;99.90
26655;DHT22;14278;50.784;4.630;2024-02-14T02:13:30;10.40;99.90
26655;DHT22;14278;50.784;4.630;2024-02-14T02:16:24;10.40;99.90
26655;DHT22;14278;50.784;4.630;2024-02-14T02:18:51;10.30;99.90
26655;DHT22;14278;50.784;4.630;2024-02-14T02:26:30;10.40;99.90
26655;DHT22;14278;50.784;4.630;2024-02-14T02:29:01;10.30;99.90
26655;DHT22;14278;50.784;4.630;2024-02-14T02:31:37;10.50;99.90
26655;DHT22;14278;50.784;4.630;2024-02-14T02:34:06;10.30;99.90
26655;DHT22;14278;50.784;4.630;2024-02-14T02:36:36;10.40;99.90
26655;DHT22;14278;50.784;4.630;2024-02-14T02:39:27;10.30;99.90
26655;DHT22;14278;50.784;4.630;2024-02-14T02:45:15;10.60;99.90
26655;DHT22;14278;50.784;4.630;2024-02-14T02:48:13;10.50;99.90
26655;DHT22;14278;50.784;4.630;2024-02-14T02:50:39;10.40;99.90
26655;DHT22;14278;50.784;4.630;2024-02-14T02:53:05;10.40;99.90
26655;DHT22;14278;50.784;4.630;2024-02-14T02:55:35;10.20;99.90
26655;DHT22;14278;50.784;4.630;2024-02-14T02:58:03;10.30;99.90
26655;DHT22;14278;50.784;4.630;2024-02-14T03:00:29;10.30;99.90
26655;DHT22;14278;50.784;4.630;2024-02-14T03:02:56;10.50;99.90
26655;DHT22;14278;50.784;4.630;2024-02-14T03:05:22;10.50;99.90
26655;DHT22;14278;50.784;4.630;2024-02-14T03:07:50;10.60;99.90
26655;DHT22;14278;50.784;4.630;2024-02-14T03:10:26;10.70;99.90
26655;DHT22;14278;50.784;4.630;2024-02-14T03:13:16;10.80;99.90
26655;DHT22;14278;50.784;4.630;2024-02-14T03:15:42;10.70;99.90
26655;DHT22;14278;50.784;4.630;2024-02-14T03:18:09;10.50;99.90
26655;DHT22;14278;50.784;4.630;2024-02-14T03:20:36;10.60;99.90
26655;DHT22;14278;50.784;4.630;2024-02-14T03:23:02;10.70;99.90
26655;DHT22;14278;50.784;4.630;2024-02-14T03:25:40;10.70;99.90
26655;DHT22;14278;50.784;4.630;2024-02-14T03:28:11;10.80;99.90
26655;DHT22;14278;50.784;4.630;2024-02-14T03:30:41;10.90;99.90
26655;DHT22;14278;50.784;4.630;2024-02-14T03:33:10;10.80;99.90
26655;DHT22;14278;50.784;4.630;2024-02-14T03:35:40;11.00;99.90
26655;DHT22;14278;50.784;4.630;2024-02-14T03:38:23;11.00;99.90
26655;DHT22;14278;50.784;4.630;2024-02-14T03:41:11;10.70;99.90
26655;DHT22;14278;50.784;4.630;2024-02-14T03:43:37;10.70;99.90
26655;DHT22;14278;50.784;4.630;2024-02-14T03:46:37;10.90;99.90
26655;DHT22;14278;50.784;4.630;2024-02-14T03:49:56;10.80;99.90
26655;DHT22;14278;50.784;4.630;2024-02-14T04:19:21;10.50;99.90
26655;DHT22;14278;50.784;4.630;2024-02-14T04:22:00;10.70;99.90
26655;DHT22;14278;50.784;4.630;2024-02-14T04:24:49;10.60;99.90
26655;DHT22;14278;50.784;4.630;2024-02-14T04:27:58;10.40;99.90
26655;DHT22;14278;50.784;4.630;2024-02-14T04:32:54;10.80;99.90
26655;DHT22;14278;50.784;4.630;2024-02-14T04:35:20;10.50;99.90
26655;DHT22;14278;50.784;4.630;2024-02-14T04:45:54;10.60;99.90
26655;DHT22;14278;50.784;4.630;2024-02-14T04:48:43;10.60;99.90
26655;DHT22;14278;50.784;4.630;2024-02-14T04:54:13;11.00;99.90
26655;DHT22;14278;50.784;4.630;2024-02-14T04:56:44;11.00;99.90
26655;DHT22;14278;50.784;4.630;2024-02-14T04:59:12;10.70;99.90
26655;DHT22;14278;50.784;4.630;2024-02-14T05:01:59;10.90;99.90
26655;DHT22;14278;50.784;4.630;2024-02-14T05:04:52;10.90;99.90
26655;DHT22;14278;50.784;4.630;2024-02-14T05:07:30;11.00;99.90
26655;DHT22;14278;50.784;4.630;2024-02-14T05:09:56;11.00;99.90
26655;DHT22;14278;50.784;4.630;2024-02-14T05:12:22;11.00;99.90
26655;DHT22;14278;50.784;4.630;2024-02-14T05:15:08;11.10;99.90
26655;DHT22;14278;50.784;4.630;2024-02-14T05:17:42;10.60;99.90
26655;DHT22;14278;50.784;4.630;2024-02-14T05:20:35;10.70;99.90
26655;DHT22;14278;50.784;4.630;2024-02-14T05:23:07;11.00;99.90
26655;DHT22;14278;50.784;4.630;2024-02-14T05:25:37;11.20;99.90
26655;DHT22;14278;50.784;4.630;2024-02-14T05:28:42;11.20;99.90
26655;DHT22;14278;50.784;4.630;2024-02-14T05:31:18;11.20;99.90
26655;DHT22;14278;50.784;4.630;2024-02-14T05:33:44;10.70;99.90
26655;DHT22;14278;50.784;4.630;2024-02-14T05:36:09;10.90;99.90
26655;DHT22;14278;50.784;4.630;2024-02-14T05:38:35;10.90;99.90
26655;DHT22;14278;50.784;4.630;2024-02-14T05:43:43;10.70;99.90
26655;DHT22;14278;50.784;4.630;2024-02-14T05:46:10;10.90;99.90
26655;DHT22;14278;50.784;4.630;2024-02-14T05:48:35;10.90;99.90
26655;DHT22;14278;50.784;4.630;2024-02-14T06:28:46;11.10;99.90
26655;DHT22;14278;50.784;4.630;2024-02-14T06:36:59;11.50;99.90
26655;DHT22;14278;50.784;4.630;2024-02-14T06:43:03;11.30;99.90
26655;DHT22;14278;50.784;4.630;2024-02-14T06:48:59;11.00;99.90
26655;DHT22;14278;50.784;4.630;2024-02-14T06:51:28;11.30;99.90
26655;DHT22;14278;50.784;4.630;2024-02-14T06:54:13;11.60;99.90
26655;DHT22;14278;50.784;4.630;2024-02-14T07:03:21;11.40;99.90
26655;DHT22;14278;50.784;4.630;2024-02-14T07:08:50;11.40;99.90
26655;DHT22;14278;50.784;4.630;2024-02-14T07:32:18;11.80;99.90
26655;DHT22;14278;50.784;4.630;2024-02-14T07:35:19;11.70;99.90
26655;DHT22;14278;50.784;4.630;2024-02-14T07:48:02;11.80;99.90
26655;DHT22;14278;50.784;4.630;2024-02-14T07:50:34;11.90;99.90
26655;DHT22;14278;50.784;4.630;2024-02-14T07:53:04;11.80;99.90
26655;DHT22;14278;50.784;4.630;2024-02-14T07:58:44;11.90;99.90
26655;DHT22;14278;50.784;4.630;2024-02-14T08:01:30;12.20;99.90
26655;DHT22;14278;50.784;4.630;2024-02-14T08:04:05;12.10;99.90
26655;DHT22;14278;50.784;4.630;2024-02-14T08:29:51;11.60;99.90
26655;DHT22;14278;50.784;4.630;2024-02-14T08:35:04;11.80;99.90
26655;DHT22;14278;50.784;4.630;2024-02-14T08:48:46;11.80;99.90
26655;DHT22;14278;50.784;4.630;2024-02-14T08:51:13;11.90;99.90
26655;DHT22;14278;50.784;4.630;2024-02-14T08:54:08;11.70;99.90
26655;DHT22;14278;50.784;4.630;2024-02-14T08:57:13;11.70;99.90
26655;DHT22;14278;50.784;4.630;2024-02-14T09:02:37;11.50;99.90
26655;DHT22;14278;50.784;4.630;2024-02-14T09:22:05;11.90;99.90
26655;DHT22;14278;50.784;4.630;2024-02-14T10:07:09;12.00;99.90
26655;DHT22;14278;50.784;4.630;2024-02-14T10:09:53;12.10;99.90
26655;DHT22;14278;50.784;4.630;2024-02-14T10:18:32;12.40;99.90
26655;DHT22;14278;50.784;4.630;2024-02-14T10:23:38;12.40;99.90
26655;DHT22;14278;50.784;4.630;2024-02-14T10:28:49;12.30;99.90
26655;DHT22;14278;50.784;4.630;2024-02-14T10:31:17;12.20;99.90
26655;DHT22;14278;50.784;4.630;2024-02-14T10:42:09;12.60;99.90
26655;DHT22;14278;50.784;4.630;2024-02-14T10:47:23;12.30;99.90
26655;DHT22;14278;50.784;4.630;2024-02-14T10:58:55;12.60;99.90
26655;DHT22;14278;50.784;4.630;2024-02-14T11:01:28;12.70;99.90
26655;DHT22;14278;50.784;4.630;2024-02-14T11:03:58;12.60;99.90
26655;DHT22;14278;50.784;4.630;2024-02-14T11:06:25;12.70;99.90
26655;DHT22;14278;50.784;4.630;2024-02-14T11:19:14;12.70;99.90
26655;DHT22;14278;50.784;4.630;2024-02-14T11:21:46;12.80;99.90
26655;DHT22;14278;50.784;4.630;2024-02-14T11:27:13;13.00;99.90
26655;DHT22;14278;50.784;4.630;2024-02-14T11:30:02;12.90;99.90
26655;DHT22;14278;50.784;4.630;2024-02-14T11:38:06;12.80;99.90
26655;DHT22;14278;50.784;4.630;2024-02-14T11:40:33;12.90;99.90
26655;DHT22;14278;50.784;4.630;2024-02-14T11:55:46;13.10;99.90
26655;DHT22;14278;50.784;4.630;2024-02-14T12:06:30;12.80;99.90
26655;DHT22;14278;50.784;4.630;2024-02-14T12:09:17;13.00;99.90
26655;DHT22;14278;50.784;4.630;2024-02-14T12:11:43;13.00;99.90
26655;DHT22;14278;50.784;4.630;2024-02-14T12:14:11;13.20;99.90
26655;DHT22;14278;50.784;4.630;2024-02-14T12:16:43;13.20;99.90
26655;DHT22;14278;50.784;4.630;2024-02-14T12:21:48;13.30;99.90
26655;DHT22;14278;50.784;4.630;2024-02-14T12:27:05;13.10;99.90
26655;DHT22;14278;50.784;4.630;2024-02-14T12:29:35;13.10;99.90
26655;DHT22;14278;50.784;4.630;2024-02-14T12:37:33;13.20;99.90
26655;DHT22;14278;50.784;4.630;2024-02-14T12:40:26;13.30;99.90
26655;DHT22;14278;50.784;4.630;2024-02-14T12:42:52;13.20;99.90
26655;DHT22;14278;50.784;4.630;2024-02-14T12:53:33;13.00;99.90
26655;DHT22;14278;50.784;4.630;2024-02-14T12:56:41;13.00;99.90
26655;DHT22;14278;50.784;4.630;2024-02-14T13:02:28;13.20;99.90
26655;DHT22;14278;50.784;4.630;2024-02-14T13:11:33;13.30;99.90
26655;DHT22;14278;50.784;4.630;2024-02-14T13:14:01;13.50;99.90
26655;DHT22;14278;50.784;4.630;2024-02-14T13:16:33;13.50;99.90
26655;DHT22;14278;50.784;4.630;2024-02-14T13:18:59;13.50;99.90
26655;DHT22;14278;50.784;4.630;2024-02-14T13:21:25;13.10;99.90
26655;DHT22;14278;50.784;4.630;2024-02-14T13:23:50;13.50;99.90
26655;DHT22;14278;50.784;4.630;2024-02-14T13:26:16;13.30;99.90
26655;DHT22;14278;50.784;4.630;2024-02-14T13:28:42;13.60;99.90
26655;DHT22;14278;50.784;4.630;2024-02-14T13:33:43;13.10;99.90
26655;DHT22;14278;50.784;4.630;2024-02-14T13:36:09;13.40;99.90
26655;DHT22;14278;50.784;4.630;2024-02-14T13:38:34;13.40;99.90
26655;DHT22;14278;50.784;4.630;2024-02-14T13:43:31;13.40;99.90
26655;DHT22;14278;50.784;4.630;2024-02-14T13:45:57;13.80;99.90
26655;DHT22;14278;50.784;4.630;2024-02-14T13:48:22;13.60;99.90
26655;DHT22;14278;50.784;4.630;2024-02-14T13:50:48;13.60;99.90
26655;DHT22;14278;50.784;4.630;2024-02-14T14:01:06;13.70;99.90
26655;DHT22;14278;50.784;4.630;2024-02-14T14:08:41;13.30;99.90
26655;DHT22;14278;50.784;4.630;2024-02-14T14:11:07;13.50;99.90
26655;DHT22;14278;50.784;4.630;2024-02-14T14:13:34;13.50;99.90
26655;DHT22;14278;50.784;4.630;2024-02-14T14:18:35;13.00;99.90
26655;DHT22;14278;50.784;4.630;2024-02-14T14:31:17;13.50;99.90
26655;DHT22;14278;50.784;4.630;2024-02-14T14:33:46;13.50;99.90
26655;DHT22;14278;50.784;4.630;2024-02-14T14:36:11;13.60;99.90
26655;DHT22;14278;50.784;4.630;2024-02-14T14:46:24;13.70;99.90
26655;DHT22;14278;50.784;4.630;2024-02-14T14:54:01;13.70;99.90
26655;DHT22;14278;50.784;4.630;2024-02-14T14:56:27;13.70;99.90
26655;DHT22;14278;50.784;4.630;2024-02-14T15:10:34;13.50;99.90
26655;DHT22;14278;50.784;4.630;2024-02-14T15:13:22;14.00;99.90
26655;DHT22;14278;50.784;4.630;2024-02-14T15:15:51;14.00;99.90
26655;DHT22;14278;50.784;4.630;2024-02-14T15:21:17;13.70;99.90
26655;DHT22;14278;50.784;4.630;2024-02-14T15:26:28;13.90;99.90
26655;DHT22;14278;50.784;4.630;2024-02-14T15:28:57;14.00;99.90
26655;DHT22;14278;50.784;4.630;2024-02-14T15:50:38;13.60;99.90
26655;DHT22;14278;50.784;4.630;2024-02-14T16:06:49;13.80;99.90
26655;DHT22;14278;50.784;4.630;2024-02-14T16:37:50;13.80;99.90
26655;DHT22;14278;50.784;4.630;2024-02-14T16:40:22;13.80;99.90
26655;DHT22;14278;50.784;4.630;2024-02-14T16:46:01;13.60;99.90
26655;DHT22;14278;50.784;4.630;2024-02-14T16:48:28;13.70;99.90
26655;DHT22;14278;50.784;4.630;2024-02-14T16:50:57;13.50;99.90
26655;DHT22;14278;50.784;4.630;2024-02-14T17:01:33;13.40;99.90
26655;DHT22;14278;50.784;4.630;2024-02-14T17:04:25;13.60;99.90
26655;DHT22;14278;50.784;4.630;2024-02-14T17:09:45;13.50;99.90
26655;DHT22;14278;50.784;4.630;2024-02-14T17:12:36;13.20;99.90
26655;DHT22;14278;50.784;4.630;2024-02-14T17:15:02;13.10;99.90
26655;DHT22;14278;50.784;4.630;2024-02-14T17:17:47;13.10;99.90
26655;DHT22;14278;50.784;4.630;2024-02-14T17:30:32;13.50;99.90
26655;DHT22;14278;50.784;4.630;2024-02-14T17:45:50;13.80;99.90
26655;DHT22;14278;50.784;4.630;2024-02-14T17:48:41;13.70;99.90
26655;DHT22;14278;50.784;4.630;2024-02-14T17:51:11;13.40;99.90
26655;DHT22;14278;50.784;4.630;2024-02-14T17:56:28;13.70;99.90
26655;DHT22;14278;50.784;4.630;2024-02-14T19:38:50;13.80;99.90
26655;DHT22;14278;50.784;4.630;2024-02-14T19:41:19;14.10;99.90
26655;DHT22;14278;50.784;4.630;2024-02-14T19:43:48;14.00;99.90
26655;DHT22;14278;50.784;4.630;2024-02-14T19:46:16;13.60;99.90
26655;DHT22;14278;50.784;4.630;2024-02-14T19:48:42;13.70;99.90
26655;DHT22;14278;50.784;4.630;2024-02-14T19:51:07;13.60;99.90
26655;DHT22;14278;50.784;4.630;2024-02-14T19:53:33;13.90;99.90
26655;DHT22;14278;50.784;4.630;2024-02-14T19:56:00;13.90;99.90
26655;DHT22;14278;50.784;4.630;2024-02-14T19:58:26;13.80;99.90
26655;DHT22;14278;50.784;4.630;2024-02-14T20:00:51;13.90;99.90
26655;DHT22;14278;50.784;4.630;2024-02-14T20:03:17;14.10;99.90
26655;DHT22;14278;50.784;4.630;2024-02-14T20:05:44;14.00;99.90
26655;DHT22;14278;50.784;4.630;2024-02-14T20:08:12;14.00;99.90
26655;DHT22;14278;50.784;4.630;2024-02-14T20:10:39;13.90;99.90
26655;DHT22;14278;50.784;4.630;2024-02-14T20:13:05;14.00;99.90
26655;DHT22;14278;50.784;4.630;2024-02-14T20:15:30;13.90;99.90
26655;DHT22;14278;50.784;4.630;2024-02-14T20:17:56;13.90;99.90
26655;DHT22;14278;50.784;4.630;2024-02-14T20:20:22;14.00;99.90
26655;DHT22;14278;50.784;4.630;2024-02-14T20:22:49;13.70;99.90
26655;DHT22;14278;50.784;4.630;2024-02-14T20:25:15;13.60;99.90
26655;DHT22;14278;50.784;4.630;2024-02-14T20:27:41;13.70;99.90
26655;DHT22;14278;50.784;4.630;2024-02-14T20:30:08;13.60;99.90
26655;DHT22;14278;50.784;4.630;2024-02-14T20:32:36;13.80;99.90
26655;DHT22;14278;50.784;4.630;2024-02-14T20:35:09;14.00;99.90
26655;DHT22;14278;50.784;4.630;2024-02-14T20:37:41;13.80;99.90
26655;DHT22;14278;50.784;4.630;2024-02-14T20:40:08;13.90;99.90
26655;DHT22;14278;50.784;4.630;2024-02-14T20:42:34;13.90;99.90
26655;DHT22;14278;50.784;4.630;2024-02-14T20:45:00;13.90;99.90
26655;DHT22;14278;50.784;4.630;2024-02-14T20:47:25;14.00;99.90
26655;DHT22;14278;50.784;4.630;2024-02-14T20:49:51;13.70;99.90
26655;DHT22;14278;50.784;4.630;2024-02-14T20:52:17;13.70;99.90
26655;DHT22;14278;50.784;4.630;2024-02-14T20:54:44;13.70;99.90
26655;DHT22;14278;50.784;4.630;2024-02-14T20:57:10;13.80;99.90
26655;DHT22;14278;50.784;4.630;2024-02-14T20:59:36;13.50;99.90
26655;DHT22;14278;50.784;4.630;2024-02-14T21:02:01;13.50;99.90
26655;DHT22;14278;50.784;4.630;2024-02-14T21:04:27;13.50;99.90
26655;DHT22;14278;50.784;4.630;2024-02-14T21:06:53;13.60;99.90
26655;DHT22;14278;50.784;4.630;2024-02-14T21:09:20;13.30;99.90
26655;DHT22;14278;50.784;4.630;2024-02-14T21:11:46;13.40;99.90
26655;DHT22;14278;50.784;4.630;2024-02-14T21:14:11;13.20;99.90
26655;DHT22;14278;50.784;4.630;2024-02-14T21:19:13;13.50;99.90
26655;DHT22;14278;50.784;4.630;2024-02-14T21:24:13;13.50;99.90
26655;DHT22;14278;50.784;4.630;2024-02-14T21:26:39;13.50;99.90
26655;DHT22;14278;50.784;4.630;2024-02-14T21:29:13;13.60;99.90
26655;DHT22;14278;50.784;4.630;2024-02-14T21:31:39;13.50;99.90
26655;DHT22;14278;50.784;4.630;2024-02-14T21:34:05;13.80;99.90
26655;DHT22;14278;50.784;4.630;2024-02-14T21:36:31;14.00;99.90
26655;DHT22;14278;50.784;4.630;2024-02-14T21:39:23;14.30;99.90
26655;DHT22;14278;50.784;4.630;2024-02-14T21:44:24;14.10;99.90
26655;DHT22;14278;50.784;4.630;2024-02-14T21:46:55;14.00;99.90
26655;DHT22;14278;50.784;4.630;2024-02-14T21:49:22;14.40;99.90
26655;DHT22;14278;50.784;4.630;2024-02-14T21:51:49;14.50;99.90
26655;DHT22;14278;50.784;4.630;2024-02-14T21:54:15;14.40;99.90
26655;DHT22;14278;50.784;4.630;2024-02-14T21:56:42;14.20;99.90
26655;DHT22;14278;50.784;4.630;2024-02-14T21:59:08;14.40;99.90
26655;DHT22;14278;50.784;4.630;2024-02-14T22:01:35;14.50;99.90
26655;DHT22;14278;50.784;4.630;2024-02-14T22:04:00;14.50;99.90
26655;DHT22;14278;50.784;4.630;2024-02-14T22:06:26;14.50;99.90
26655;DHT22;14278;50.784;4.630;2024-02-14T22:11:55;14.90;99.90
26655;DHT22;14278;50.784;4.630;2024-02-14T22:14:40;14.50;99.90
26655;DHT22;14278;50.784;4.630;2024-02-14T22:17:06;14.40;99.90
26655;DHT22;14278;50.784;4.630;2024-02-14T22:19:37;14.30;99.90
26655;DHT22;14278;50.784;4.630;2024-02-14T22:22:05;14.40;99.90
26655;DHT22;14278;50.784;4.630;2024-02-14T22:25:03;14.40;99.90
26655;DHT22;14278;50.784;4.630;2024-02-14T22:32:41;14.80;99.90
26655;DHT22;14278;50.784;4.630;2024-02-14T22:35:11;14.60;99.90
26655;DHT22;14278;50.784;4.630;2024-02-14T22:42:54;14.30;99.90
26655;DHT22;14278;50.784;4.630;2024-02-14T22:45:20;14.50;99.90
26655;DHT22;14278;50.784;4.630;2024-02-14T22:47:46;14.30;99.90
26655;DHT22;14278;50.784;4.630;2024-02-14T22:50:13;14.00;99.90
26655;DHT22;14278;50.784;4.630;2024-02-14T22:52:41;14.20;99.90
26655;DHT22;14278;50.784;4.630;2024-02-14T22:55:07;14.30;99.90
26655;DHT22;14278;50.784;4.630;2024-02-14T22:57:36;14.00;99.90
26655;DHT22;14278;50.784;4.630;2024-02-14T23:00:01;14.10;99.90
26655;DHT22;14278;50.784;4.630;2024-02-14T23:02:46;14.10;99.90
26655;DHT22;14278;50.784;4.630;2024-02-14T23:05:12;13.90;99.90
26655;DHT22;14278;50.784;4.630;2024-02-14T23:07:44;14.10;99.90
26655;DHT22;14278;50.784;4.630;2024-02-14T23:10:09;14.10;99.90
26655;DHT22;14278;50.784;4.630;2024-02-14T23:12:35;14.20;99.90
26655;DHT22;14278;50.784;4.630;2024-02-14T23:15:01;14.20;99.90
26655;DHT22;14278;50.784;4.630;2024-02-14T23:17:28;14.10;99.90
26655;DHT22;14278;50.784;4.630;2024-02-14T23:19:54;14.20;99.90
26655;DHT22;14278;50.784;4.630;2024-02-14T23:22:20;14.20;99.90
26655;DHT22;14278;50.784;4.630;2024-02-14T23:24:46;14.40;99.90
26655;DHT22;14278;50.784;4.630;2024-02-14T23:27:11;14.20;99.90
26655;DHT22;14278;50.784;4.630;2024-02-14T23:29:39;14.00;99.90
26655;DHT22;14278;50.784;4.630;2024-02-14T23:32:05;14.20;99.90
26655;DHT22;14278;50.784;4.630;2024-02-14T23:34:32;14.30;99.90
26655;DHT22;14278;50.784;4.630;2024-02-14T23:37:19;14.30;99.90
26655;DHT22;14278;50.784;4.630;2024-02-14T23:39:44;14.20;99.90
26655;DHT22;14278;50.784;4.630;2024-02-14T23:42:25;14.10;99.90
26655;DHT22;14278;50.784;4.630;2024-02-14T23:47:26;14.10;99.90
26655;DHT22;14278;50.784;4.630;2024-02-14T23:49:51;14.00;99.90
26655;DHT22;14278;50.784;4.630;2024-02-14T23:52:18;14.20;99.90
26655;DHT22;14278;50.784;4.630;2024-02-14T23:54:46;14.40;99.90
26655;DHT22;14278;50.784;4.630;2024-02-14T23:57:11;14.20;99.90
26655;DHT22;14278;50.784;4.630;2024-02-14T23:59:37;14.00;99.90
